Terminal Aerodrome Forecast
Issued by NWS

Home | Current Version | Previous Version | Text Only | Print | Product List | Glossary Off
Versions: 1 2 3 4 5 6 7 8 9 10 11 12

000
FTUS43 KMPX 022336
TAFRNH
TAF
KRNH 022336Z 0300/0324 20008KT P6SM FEW080
     FM031200 18007KT P6SM VCSH SCT050 BKN090
     FM031800 23008KT P6SM BKN045
     FM032100 30009KT P6SM -SHRA OVC040 PROB30 0321/0324 5SM TSRA
      OVC035CB=

USA.gov is the U.S. government's official web portal to all federal, state and local government web resources and services.